Time;durP1;ratioP1;P1;durP2;ratioP2;P2;SDS_P1;SDS_P2;PMS_P1;PMS_P2;Temp;Humidity;BMP_temperature;BMP_pressure;BME280_temperature;BME280_humidity;BME280_pressure;Samples;Min_cycle;Max_cycle;Signal;HPM_P1;HPM_P2
2023/10/26 00:02:25;;;;;;;1.48;1.38;;;;;;;;;;5031259;28;20640;-89
2023/10/26 00:04:52;;;;;;;2.00;1.90;;;;;;;;;;5019111;28;20331;-88
2023/10/26 00:07:20;;;;;;;1.70;1.60;;;;;;;;;;5032655;28;20290;-88
2023/10/26 00:09:47;;;;;;;1.58;1.48;;;;;;;;;;5032641;28;20203;-88
2023/10/26 00:12:15;;;;;;;1.40;1.30;;;;;;;;;;5033688;28;20679;-88
2023/10/26 00:14:44;;;;;;;0.80;0.80;;;;;;;;;;5022779;28;20221;-88
2023/10/26 00:17:11;;;;;;;1.20;1.20;;;;;;;;;;5032439;28;20277;-88
2023/10/26 00:19:39;;;;;;;1.10;1.10;;;;;;;;;;5032271;28;20199;-89
2023/10/26 00:22:06;;;;;;;1.10;1.02;;;;;;;;;;5030920;28;20237;-88
2023/10/26 00:24:37;;;;;;;0.98;0.98;;;;;;;;;;5031963;28;20222;-86
2023/10/26 00:27:05;;;;;;;1.38;1.30;;;;;;;;;;5030911;28;20719;-88
2023/10/26 00:29:32;;;;;;;1.10;1.10;;;;;;;;;;5031933;28;20205;-87
2023/10/26 00:32:03;;;;;;;0.93;0.93;;;;;;;;;;5031914;28;20205;-87
2023/10/26 00:34:31;;;;;;;0.90;0.90;;;;;;;;;;5031832;28;20297;-87
2023/10/26 00:36:58;;;;;;;0.93;0.90;;;;;;;;;;5032156;28;20275;-87
2023/10/26 00:39:26;;;;;;;1.27;1.17;;;;;;;;;;5031954;28;20198;-87
2023/10/26 00:41:54;;;;;;;1.15;1.10;;;;;;;;;;5017302;28;20206;-89
2023/10/26 00:44:22;;;;;;;1.00;1.00;;;;;;;;;;5030162;28;20244;-86
2023/10/26 00:46:50;;;;;;;1.65;1.42;;;;;;;;;;5052195;28;20246;-87
2023/10/26 00:49:20;;;;;;;1.38;1.30;;;;;;;;;;5043435;28;20203;-87
2023/10/26 00:51:50;;;;;;;1.10;1.08;;;;;;;;;;5052323;28;20183;-88
2023/10/26 00:54:19;;;;;;;0.80;0.80;;;;;;;;;;5033239;28;20313;-86
2023/10/26 00:56:47;;;;;;;1.52;1.13;;;;;;;;;;5028691;28;20286;-90
2023/10/26 00:59:16;;;;;;;1.00;1.00;;;;;;;;;;5028347;28;20209;-88
2023/10/26 01:01:45;;;;;;;1.20;1.20;;;;;;;;;;5027728;28;20202;-88
2023/10/26 01:04:14;;;;;;;1.33;1.33;;;;;;;;;;5031727;28;20762;-88
2023/10/26 01:06:43;;;;;;;2.35;1.05;;;;;;;;;;5030244;28;20234;-87
2023/10/26 01:09:11;;;;;;;1.55;1.45;;;;;;;;;;5031766;28;20686;-88
2023/10/26 01:11:39;;;;;;;1.00;1.00;;;;;;;;;;5031957;28;20587;-87
2023/10/26 01:14:07;;;;;;;0.90;0.90;;;;;;;;;;5029298;28;20275;-88
2023/10/26 01:16:35;;;;;;;1.20;1.10;;;;;;;;;;5028335;28;20209;-87
2023/10/26 01:19:03;;;;;;;1.10;1.10;;;;;;;;;;5024651;28;20289;-87
2023/10/26 01:21:33;;;;;;;1.95;1.33;;;;;;;;;;5030371;28;20228;-88
2023/10/26 01:24:00;;;;;;;1.10;1.10;;;;;;;;;;5031581;28;20250;-88
2023/10/26 01:26:28;;;;;;;1.30;1.30;;;;;;;;;;5031370;28;20229;-87
2023/10/26 01:28:55;;;;;;;1.25;1.02;;;;;;;;;;5043105;28;20285;-90
2023/10/26 01:31:23;;;;;;;1.05;1.05;;;;;;;;;;5039290;28;20289;-89
2023/10/26 01:33:50;;;;;;;1.02;1.02;;;;;;;;;;5044841;28;20262;-89
2023/10/26 01:36:18;;;;;;;1.20;1.20;;;;;;;;;;5032659;28;20202;-89
2023/10/26 01:38:47;;;;;;;1.48;1.00;;;;;;;;;;5029211;28;20210;-89
2023/10/26 01:41:14;;;;;;;1.00;1.00;;;;;;;;;;5027142;28;20213;-89
2023/10/26 01:43:42;;;;;;;1.00;1.00;;;;;;;;;;5028091;28;20229;-89
2023/10/26 01:46:09;;;;;;;0.98;0.98;;;;;;;;;;5023658;28;20222;-89
2023/10/26 01:48:37;;;;;;;1.38;1.27;;;;;;;;;;5030607;28;20744;-89
2023/10/26 01:51:05;;;;;;;1.23;1.17;;;;;;;;;;5030897;28;20282;-88
2023/10/26 01:53:32;;;;;;;0.70;0.70;;;;;;;;;;5031152;28;20222;-88
2023/10/26 01:56:01;;;;;;;0.82;0.82;;;;;;;;;;5033471;28;20199;-89
2023/10/26 01:58:28;;;;;;;0.70;0.70;;;;;;;;;;5034601;28;20661;-89
2023/10/26 02:00:56;;;;;;;1.00;1.00;;;;;;;;;;5034302;28;20290;-89
2023/10/26 02:03:23;;;;;;;0.80;0.80;;;;;;;;;;5047456;28;20257;-88
2023/10/26 02:05:51;;;;;;;1.02;1.00;;;;;;;;;;5027654;28;20285;-89
2023/10/26 02:08:19;;;;;;;1.00;1.00;;;;;;;;;;5034351;28;20294;-89
2023/10/26 02:10:46;;;;;;;0.98;0.90;;;;;;;;;;5033979;28;20282;-89
2023/10/26 02:13:15;;;;;;;0.70;0.70;;;;;;;;;;5031281;28;20610;-89
2023/10/26 02:15:43;;;;;;;0.68;0.68;;;;;;;;;;5033996;28;20205;-89
2023/10/26 02:18:10;;;;;;;0.85;0.85;;;;;;;;;;5027120;28;20289;-89
2023/10/26 02:20:37;;;;;;;0.90;0.90;;;;;;;;;;5033058;28;20778;-88
2023/10/26 02:23:06;;;;;;;0.60;0.60;;;;;;;;;;5034152;28;20226;-88
2023/10/26 02:25:33;;;;;;;0.60;0.60;;;;;;;;;;5034189;28;20586;-89
2023/10/26 02:28:01;;;;;;;0.70;0.70;;;;;;;;;;5028770;28;20306;-90
2023/10/26 02:30:30;;;;;;;0.52;0.52;;;;;;;;;;5024439;28;20291;-89
2023/10/26 02:32:58;;;;;;;0.63;0.63;;;;;;;;;;5033886;28;20214;-88
2023/10/26 02:35:25;;;;;;;0.65;0.65;;;;;;;;;;5033918;28;20285;-89
2023/10/26 02:37:53;;;;;;;0.52;0.52;;;;;;;;;;5032335;28;20202;-89
2023/10/26 02:40:20;;;;;;;0.52;0.52;;;;;;;;;;5033588;28;20198;-87
2023/10/26 02:42:48;;;;;;;0.85;0.85;;;;;;;;;;5030413;28;20211;-88
2023/10/26 02:45:15;;;;;;;0.35;0.35;;;;;;;;;;5027109;28;20209;-88
2023/10/26 02:47:44;;;;;;;0.47;0.47;;;;;;;;;;5033158;28;20219;-88
2023/10/26 02:50:12;;;;;;;0.60;0.60;;;;;;;;;;5033674;28;20207;-88
2023/10/26 02:52:40;;;;;;;0.70;0.70;;;;;;;;;;5031571;28;20228;-88
2023/10/26 02:55:08;;;;;;;0.50;0.50;;;;;;;;;;5028454;28;20293;-89
2023/10/26 02:57:36;;;;;;;2.15;0.60;;;;;;;;;;5033219;28;20205;-88
2023/10/26 03:00:05;;;;;;;0.47;0.47;;;;;;;;;;5033173;28;20213;-89
2023/10/26 03:02:33;;;;;;;0.50;0.50;;;;;;;;;;5025362;28;20203;-90
2023/10/26 03:05:03;;;;;;;0.90;0.90;;;;;;;;;;5028899;28;20221;-88
2023/10/26 03:07:29;;;;;;;0.95;0.90;;;;;;;;;;5029854;28;20229;-88
2023/10/26 03:09:57;;;;;;;0.80;0.80;;;;;;;;;;5032247;28;20233;-87
2023/10/26 03:12:24;;;;;;;0.80;0.80;;;;;;;;;;5029680;28;20655;-88
2023/10/26 03:14:52;;;;;;;0.70;0.70;;;;;;;;;;5025403;28;20233;-88
2023/10/26 03:17:19;;;;;;;0.82;0.82;;;;;;;;;;5033259;28;20217;-88
2023/10/26 03:19:47;;;;;;;1.45;1.00;;;;;;;;;;5029863;28;20213;-87
2023/10/26 03:22:16;;;;;;;1.05;1.05;;;;;;;;;;5023013;28;20293;-88
2023/10/26 03:24:45;;;;;;;1.15;1.15;;;;;;;;;;5019244;28;20223;-88
2023/10/26 03:27:12;;;;;;;1.00;1.00;;;;;;;;;;5031608;28;20801;-88
2023/10/26 03:29:40;;;;;;;2.83;1.75;;;;;;;;;;5031362;28;20240;-89
2023/10/26 03:32:08;;;;;;;2.22;1.67;;;;;;;;;;5031223;28;20289;-89
2023/10/26 03:34:36;;;;;;;1.35;1.33;;;;;;;;;;5023594;28;20256;-88
2023/10/26 03:37:03;;;;;;;2.05;1.40;;;;;;;;;;5031705;28;20199;-88
2023/10/26 03:39:32;;;;;;;1.05;1.05;;;;;;;;;;5044277;28;20285;-88
2023/10/26 03:42:00;;;;;;;1.60;1.50;;;;;;;;;;5031099;28;20285;-88
2023/10/26 03:44:28;;;;;;;1.58;1.48;;;;;;;;;;5029683;28;20308;-87
2023/10/26 03:46:55;;;;;;;1.23;1.23;;;;;;;;;;5031337;28;20203;-88
2023/10/26 03:49:23;;;;;;;1.60;1.50;;;;;;;;;;5030666;28;20233;-87
2023/10/26 03:51:51;;;;;;;1.85;1.75;;;;;;;;;;5023291;28;20191;-90
2023/10/26 03:54:18;;;;;;;1.73;1.63;;;;;;;;;;5023465;28;20215;-88
2023/10/26 03:56:47;;;;;;;2.30;2.10;;;;;;;;;;5030852;28;20199;-89
2023/10/26 03:59:14;;;;;;;2.88;2.67;;;;;;;;;;5031279;28;20289;-88
2023/10/26 04:01:42;;;;;;;2.50;2.30;;;;;;;;;;5030272;28;20206;-89
2023/10/26 04:04:10;;;;;;;2.97;2.70;;;;;;;;;;5030878;28;20309;-88
2023/10/26 04:06:37;;;;;;;3.10;2.83;;;;;;;;;;5023307;28;20207;-88
2023/10/26 04:09:05;;;;;;;2.63;2.15;;;;;;;;;;5031271;28;20222;-88
2023/10/26 04:11:32;;;;;;;3.20;2.90;;;;;;;;;;5029897;28;20206;-87
2023/10/26 04:14:01;;;;;;;2.85;2.60;;;;;;;;;;5030913;28;20312;-88
2023/10/26 04:16:31;;;;;;;2.70;2.42;;;;;;;;;;5023181;28;20213;-87
2023/10/26 04:18:59;;;;;;;2.63;2.42;;;;;;;;;;5025566;28;20245;-88
2023/10/26 04:21:27;;;;;;;2.53;2.33;;;;;;;;;;5027180;28;20209;-86
2023/10/26 04:23:54;;;;;;;2.50;2.30;;;;;;;;;;5022757;28;20220;-88
2023/10/26 04:26:22;;;;;;;3.17;2.88;;;;;;;;;;5023297;28;20285;-88
2023/10/26 04:28:49;;;;;;;3.08;2.20;;;;;;;;;;5029433;28;20305;-89
2023/10/26 04:31:18;;;;;;;1.58;1.48;;;;;;;;;;5030464;28;20651;-90
2023/10/26 04:33:45;;;;;;;2.63;2.42;;;;;;;;;;5029734;28;20215;-90
2023/10/26 04:36:13;;;;;;;1.73;1.63;;;;;;;;;;5030559;28;20202;-88
2023/10/26 04:38:40;;;;;;;1.55;1.45;;;;;;;;;;5029530;28;20304;-88
2023/10/26 04:41:08;;;;;;;1.70;1.60;;;;;;;;;;5029989;28;20217;-88
2023/10/26 04:43:35;;;;;;;1.92;1.83;;;;;;;;;;5029761;28;20244;-88
2023/10/26 04:46:03;;;;;;;1.88;1.77;;;;;;;;;;5030804;28;20202;-87
2023/10/26 04:48:33;;;;;;;2.30;1.90;;;;;;;;;;5029955;28;20759;-89
2023/10/26 04:51:00;;;;;;;1.55;1.45;;;;;;;;;;5031985;28;20206;-87
2023/10/26 04:53:27;;;;;;;1.88;1.77;;;;;;;;;;5028532;28;20290;-87
2023/10/26 04:55:55;;;;;;;1.50;1.40;;;;;;;;;;5016389;28;20281;-88
2023/10/26 04:58:23;;;;;;;1.63;1.33;;;;;;;;;;5031334;28;20198;-88
2023/10/26 05:00:50;;;;;;;1.50;1.40;;;;;;;;;;5030287;28;20199;-88
2023/10/26 05:03:18;;;;;;;1.42;1.33;;;;;;;;;;5040825;28;20316;-90
2023/10/26 05:05:46;;;;;;;1.30;1.20;;;;;;;;;;5027266;28;20578;-88
2023/10/26 05:08:14;;;;;;;1.10;1.10;;;;;;;;;;5025973;28;20222;-87
2023/10/26 05:10:41;;;;;;;1.13;1.13;;;;;;;;;;5029599;28;20595;-88
2023/10/26 05:13:10;;;;;;;1.40;1.30;;;;;;;;;;5030544;28;20222;-87
2023/10/26 05:15:37;;;;;;;1.10;1.10;;;;;;;;;;5029851;28;20226;-88
2023/10/26 05:18:05;;;;;;;1.67;1.58;;;;;;;;;;5030920;28;20274;-87
2023/10/26 05:20:33;;;;;;;1.75;1.65;;;;;;;;;;5029628;28;20207;-88
2023/10/26 05:23:03;;;;;;;2.03;1.60;;;;;;;;;;5030276;28;20214;-88
2023/10/26 05:25:31;;;;;;;1.73;1.63;;;;;;;;;;5020496;28;20199;-89
2023/10/26 05:27:59;;;;;;;1.48;1.38;;;;;;;;;;5031040;28;20223;-87
2023/10/26 05:30:27;;;;;;;1.92;1.83;;;;;;;;;;5044236;28;20226;-87
2023/10/26 05:32:55;;;;;;;1.80;1.70;;;;;;;;;;5050896;28;20225;-90
2023/10/26 05:35:22;;;;;;;1.67;1.58;;;;;;;;;;5055911;28;20241;-88
2023/10/26 05:37:50;;;;;;;2.40;2.20;;;;;;;;;;5039268;28;20199;-90
2023/10/26 05:40:18;;;;;;;2.00;1.90;;;;;;;;;;5046116;28;20290;-89
2023/10/26 05:42:46;;;;;;;1.60;1.50;;;;;;;;;;5034511;28;20555;-88
2023/10/26 05:45:13;;;;;;;4.15;2.17;;;;;;;;;;5027997;28;20202;-87
2023/10/26 05:47:41;;;;;;;1.60;1.50;;;;;;;;;;5035139;28;20208;-87
2023/10/26 05:50:10;;;;;;;1.63;1.52;;;;;;;;;;5034375;28;20453;-89
2023/10/26 05:52:38;;;;;;;1.73;1.63;;;;;;;;;;5026857;28;20738;-88
2023/10/26 05:55:07;;;;;;;1.05;1.05;;;;;;;;;;5034671;28;20293;-87
2023/10/26 05:57:35;;;;;;;1.27;1.17;;;;;;;;;;5034630;28;20194;-88
2023/10/26 06:00:06;;;;;;;1.23;1.23;;;;;;;;;;5034655;28;20290;-87
2023/10/26 06:02:34;;;;;;;1.60;1.50;;;;;;;;;;5034558;28;20679;-88
2023/10/26 06:05:01;;;;;;;1.50;1.40;;;;;;;;;;5034580;28;20206;-89
2023/10/26 06:07:28;;;;;;;1.30;1.23;;;;;;;;;;5033987;28;20293;-87
2023/10/26 06:09:56;;;;;;;1.60;1.50;;;;;;;;;;5030205;28;20307;-88
2023/10/26 06:12:23;;;;;;;1.38;1.27;;;;;;;;;;5031353;28;20285;-88
2023/10/26 06:14:52;;;;;;;1.42;1.33;;;;;;;;;;5034400;28;20314;-88
2023/10/26 06:17:20;;;;;;;1.67;1.50;;;;;;;;;;5034233;28;20209;-88
2023/10/26 06:19:47;;;;;;;2.20;2.00;;;;;;;;;;5034600;28;20213;-88
2023/10/26 06:22:15;;;;;;;1.60;1.50;;;;;;;;;;5034287;28;20210;-88
2023/10/26 06:24:44;;;;;;;2.83;1.85;;;;;;;;;;5034375;28;20313;-88
2023/10/26 06:27:11;;;;;;;1.85;1.73;;;;;;;;;;5034389;28;20564;-88
2023/10/26 06:29:39;;;;;;;1.40;1.33;;;;;;;;;;5033494;28;20230;-87
2023/10/26 06:32:08;;;;;;;1.40;1.30;;;;;;;;;;5033886;28;20289;-89
2023/10/26 06:34:35;;;;;;;1.88;1.77;;;;;;;;;;5032451;28;20309;-88
2023/10/26 06:37:03;;;;;;;1.60;1.50;;;;;;;;;;5027359;28;20703;-88
2023/10/26 06:39:30;;;;;;;1.85;1.75;;;;;;;;;;5032878;28;20294;-88
2023/10/26 06:41:58;;;;;;;1.25;1.25;;;;;;;;;;5025199;28;20281;-87
2023/10/26 06:44:27;;;;;;;1.10;1.10;;;;;;;;;;5033866;28;20317;-88
2023/10/26 06:46:54;;;;;;;2.80;1.50;;;;;;;;;;5034059;28;20650;-88
2023/10/26 06:49:23;;;;;;;1.55;1.45;;;;;;;;;;5025415;28;20578;-88
2023/10/26 06:51:51;;;;;;;0.90;0.90;;;;;;;;;;5025146;28;20286;-88
2023/10/26 06:54:18;;;;;;;1.20;1.20;;;;;;;;;;5033785;28;20293;-89
2023/10/26 06:56:46;;;;;;;1.20;1.20;;;;;;;;;;5033351;28;20206;-88
2023/10/26 06:59:13;;;;;;;2.05;1.65;;;;;;;;;;5033656;28;20285;-89
2023/10/26 07:01:41;;;;;;;1.13;1.13;;;;;;;;;;5032532;28;20361;-89
2023/10/26 07:04:08;;;;;;;1.50;1.40;;;;;;;;;;5025562;28;20225;-88
2023/10/26 07:06:37;;;;;;;0.90;0.90;;;;;;;;;;5032819;28;20577;-89
2023/10/26 07:09:04;;;;;;;1.00;1.00;;;;;;;;;;5025430;28;20250;-88
2023/10/26 07:11:32;;;;;;;1.00;1.00;;;;;;;;;;5024770;28;20508;-88
2023/10/26 07:14:00;;;;;;;0.90;0.90;;;;;;;;;;5025135;28;20590;-88
2023/10/26 07:16:27;;;;;;;1.00;1.00;;;;;;;;;;5017193;28;20199;-87
2023/10/26 07:18:55;;;;;;;1.00;1.00;;;;;;;;;;5033115;28;20285;-87
2023/10/26 07:21:22;;;;;;;1.00;1.00;;;;;;;;;;5032785;28;20205;-86
2023/10/26 07:23:51;;;;;;;1.20;1.20;;;;;;;;;;5032722;28;20272;-87
2023/10/26 07:26:19;;;;;;;1.38;1.27;;;;;;;;;;5033114;28;20289;-88
2023/10/26 07:28:47;;;;;;;1.10;1.10;;;;;;;;;;5033003;28;20660;-88
2023/10/26 07:31:21;;;;;;;1.20;1.20;;;;;;;;;;5033133;28;20217;-89
2023/10/26 07:33:50;;;;;;;1.00;1.00;;;;;;;;;;5029426;28;20228;-88
2023/10/26 07:36:17;;;;;;;1.00;1.00;;;;;;;;;;5021632;28;20285;-89
2023/10/26 07:38:45;;;;;;;1.00;1.00;;;;;;;;;;5032041;28;20206;-89
2023/10/26 07:41:13;;;;;;;0.82;0.82;;;;;;;;;;5032946;28;20662;-88
2023/10/26 07:43:41;;;;;;;1.20;1.10;;;;;;;;;;5032603;28;20230;-89
2023/10/26 07:46:09;;;;;;;0.80;0.80;;;;;;;;;;5033387;28;20639;-89
2023/10/26 07:48:36;;;;;;;1.65;1.55;;;;;;;;;;5032763;28;20293;-87
2023/10/26 07:51:05;;;;;;;1.17;1.08;;;;;;;;;;5032149;28;20229;-88
2023/10/26 07:53:33;;;;;;;0.90;0.90;;;;;;;;;;5032429;28;20644;-88
2023/10/26 07:56:00;;;;;;;1.10;1.10;;;;;;;;;;5032625;28;20289;-88
2023/10/26 07:58:32;;;;;;;1.30;1.20;;;;;;;;;;5032258;28;20309;-87
2023/10/26 08:01:00;;;;;;;1.08;1.08;;;;;;;;;;5032527;28;20198;-88
2023/10/26 08:03:28;;;;;;;1.63;1.52;;;;;;;;;;5023425;28;20224;-87
2023/10/26 08:06:00;;;;;;;1.45;1.35;;;;;;;;;;5032549;28;20577;-87
2023/10/26 08:08:28;;;;;;;1.08;1.00;;;;;;;;;;5024074;28;20214;-88
2023/10/26 08:10:56;;;;;;;1.60;0.82;;;;;;;;;;5032112;28;20227;-89
2023/10/26 08:13:24;;;;;;;0.70;0.70;;;;;;;;;;5034030;28;20288;-88
2023/10/26 08:15:53;;;;;;;1.17;1.10;;;;;;;;;;5031991;28;20206;-88
2023/10/26 08:18:21;;;;;;;1.13;1.10;;;;;;;;;;5031861;28;20293;-89
2023/10/26 08:20:51;;;;;;;2.28;1.50;;;;;;;;;;5031917;28;20202;-89
2023/10/26 08:23:19;;;;;;;1.00;1.00;;;;;;;;;;5031603;28;20222;-87
2023/10/26 08:25:47;;;;;;;1.05;1.02;;;;;;;;;;5024020;28;20753;-88
2023/10/26 08:28:16;;;;;;;1.15;1.10;;;;;;;;;;5026112;28;20310;-88
2023/10/26 08:30:43;;;;;;;0.90;0.90;;;;;;;;;;5012203;28;20237;-88
2023/10/26 08:33:12;;;;;;;1.00;1.00;;;;;;;;;;5012812;28;20258;-88
2023/10/26 08:35:40;;;;;;;1.00;1.00;;;;;;;;;;5020662;28;20219;-87
2023/10/26 08:38:08;;;;;;;1.30;1.20;;;;;;;;;;5013803;28;20570;-87
2023/10/26 08:40:36;;;;;;;1.20;1.20;;;;;;;;;;5023810;28;20235;-88
2023/10/26 08:43:05;;;;;;;1.40;1.30;;;;;;;;;;5043763;28;20288;-89
2023/10/26 08:45:33;;;;;;;1.42;1.33;;;;;;;;;;5053341;28;20198;-88
2023/10/26 08:48:01;;;;;;;2.10;2.00;;;;;;;;;;5043043;28;20659;-90
2023/10/26 08:50:29;;;;;;;1.42;1.33;;;;;;;;;;5033532;28;20693;-89
2023/10/26 08:52:57;;;;;;;1.92;1.52;;;;;;;;;;5025734;28;20225;-89
2023/10/26 08:56:05;;;;;;;1.13;1.10;;;;;;;;;;5041486;28;20652;-90
2023/10/26 08:58:33;;;;;;;1.48;1.38;;;;;;;;;;5024348;28;20259;-87
2023/10/26 09:01:01;;;;;;;1.40;1.30;;;;;;;;;;5032582;28;20195;-85
2023/10/26 09:03:28;;;;;;;2.10;1.52;;;;;;;;;;5032335;28;20276;-85
2023/10/26 09:05:58;;;;;;;1.15;1.13;;;;;;;;;;5033169;28;20293;-87
2023/10/26 09:08:27;;;;;;;1.00;1.00;;;;;;;;;;5034703;28;20202;-87
2023/10/26 09:10:54;;;;;;;2.10;1.73;;;;;;;;;;5019757;28;20317;-85
2023/10/26 09:13:27;;;;;;;1.20;1.20;;;;;;;;;;5035868;28;20214;-87
2023/10/26 09:15:57;;;;;;;1.35;1.25;;;;;;;;;;5035778;28;20205;-87
2023/10/26 09:18:25;;;;;;;1.15;1.15;;;;;;;;;;5035241;28;20199;-87
2023/10/26 09:21:05;;;;;;;1.30;1.20;;;;;;;;;;5035340;28;20284;-85
2023/10/26 09:23:35;;;;;;;1.30;1.30;;;;;;;;;;5035109;28;20258;-85
2023/10/26 09:26:04;;;;;;;0.90;0.90;;;;;;;;;;5035203;28;20198;-86
2023/10/26 09:28:47;;;;;;;1.50;1.40;;;;;;;;;;5034923;28;20198;-85
2023/10/26 09:31:14;;;;;;;1.63;1.52;;;;;;;;;;5034945;28;20225;-86
2023/10/26 09:33:41;;;;;;;1.27;1.20;;;;;;;;;;5033945;28;20795;-86
2023/10/26 09:36:14;;;;;;;1.73;1.63;;;;;;;;;;5034779;28;20285;-85
2023/10/26 09:38:42;;;;;;;1.67;1.30;;;;;;;;;;5034782;28;20737;-85
2023/10/26 09:41:15;;;;;;;1.27;1.23;;;;;;;;;;5034723;28;20195;-85
2023/10/26 09:43:43;;;;;;;1.58;1.48;;;;;;;;;;5034546;28;20802;-85
2023/10/26 09:46:11;;;;;;;1.63;1.52;;;;;;;;;;5034896;28;20204;-85
2023/10/26 09:48:40;;;;;;;1.25;1.20;;;;;;;;;;5034822;28;20213;-87
2023/10/26 09:51:08;;;;;;;1.58;1.50;;;;;;;;;;5034920;28;20265;-86
2023/10/26 09:53:39;;;;;;;2.28;1.85;;;;;;;;;;5034188;28;20224;-87
2023/10/26 09:56:09;;;;;;;2.35;2.15;;;;;;;;;;5034496;28;20211;-85
2023/10/26 09:58:41;;;;;;;1.90;1.80;;;;;;;;;;5034759;28;20217;-86
2023/10/26 10:01:34;;;;;;;1.60;1.50;;;;;;;;;;5034614;28;20206;-86
2023/10/26 10:04:02;;;;;;;1.88;1.77;;;;;;;;;;5020676;28;20256;-85
2023/10/26 10:06:49;;;;;;;2.17;1.98;;;;;;;;;;5034215;28;20203;-86
2023/10/26 10:09:20;;;;;;;1.50;1.40;;;;;;;;;;5034825;28;20217;-87
2023/10/26 10:12:07;;;;;;;1.60;1.50;;;;;;;;;;5034245;28;20534;-87
2023/10/26 10:15:00;;;;;;;1.50;1.40;;;;;;;;;;5026483;28;20699;-86
2023/10/26 10:18:13;;;;;;;1.60;1.50;;;;;;;;;;5038460;28;20743;-85
2023/10/26 10:20:42;;;;;;;1.50;1.40;;;;;;;;;;4994233;28;20211;-86
2023/10/26 10:23:10;;;;;;;1.50;1.40;;;;;;;;;;5025864;28;20245;-86
2023/10/26 10:25:59;;;;;;;1.42;1.33;;;;;;;;;;5034453;28;20577;-87
2023/10/26 10:28:52;;;;;;;1.10;1.10;;;;;;;;;;5034471;28;20260;-84
2023/10/26 10:31:41;;;;;;;1.30;1.20;;;;;;;;;;5030190;28;20222;-85
2023/10/26 10:34:09;;;;;;;0.82;0.82;;;;;;;;;;5034621;28;20258;-86
2023/10/26 10:37:17;;;;;;;1.17;1.17;;;;;;;;;;5034415;28;20206;-86
2023/10/26 10:40:13;;;;;;;1.30;1.30;;;;;;;;;;5026478;28;20617;-86
2023/10/26 10:42:48;;;;;;;1.10;1.10;;;;;;;;;;5034356;28;20203;-87
2023/10/26 10:45:16;;;;;;;1.60;1.50;;;;;;;;;;5026821;28;20202;-86
2023/10/26 10:47:46;;;;;;;1.50;1.40;;;;;;;;;;5034203;28;20656;-86
2023/10/26 10:50:21;;;;;;;1.00;1.00;;;;;;;;;;5033981;28;20268;-86
2023/10/26 10:52:53;;;;;;;1.58;1.48;;;;;;;;;;5025985;28;20308;-86
2023/10/26 10:55:24;;;;;;;2.28;1.50;;;;;;;;;;5034193;28;20739;-86
2023/10/26 10:57:58;;;;;;;1.58;1.27;;;;;;;;;;5034204;28;20202;-86
2023/10/26 11:00:27;;;;;;;1.00;1.00;;;;;;;;;;5034426;28;20198;-87
2023/10/26 11:02:57;;;;;;;1.52;1.42;;;;;;;;;;5032233;28;20191;-85
2023/10/26 11:05:36;;;;;;;2.33;1.50;;;;;;;;;;5026576;28;20198;-85
2023/10/26 11:08:04;;;;;;;1.40;1.30;;;;;;;;;;5016163;28;20664;-86
2023/10/26 11:10:31;;;;;;;1.10;1.10;;;;;;;;;;5030040;28;20202;-86
2023/10/26 11:13:00;;;;;;;1.10;1.10;;;;;;;;;;5033151;28;20582;-87
2023/10/26 11:15:34;;;;;;;1.20;1.20;;;;;;;;;;5042361;28;20234;-86
2023/10/26 11:18:03;;;;;;;1.40;1.40;;;;;;;;;;5033108;28;20683;-86
2023/10/26 11:20:36;;;;;;;1.42;1.33;;;;;;;;;;5033152;28;20209;-85
2023/10/26 11:23:04;;;;;;;1.30;1.20;;;;;;;;;;5034013;28;20240;-86
2023/10/26 11:25:32;;;;;;;1.23;1.20;;;;;;;;;;5025743;28;20206;-85
2023/10/26 11:28:01;;;;;;;1.30;1.27;;;;;;;;;;5033547;28;20202;-85
2023/10/26 11:30:28;;;;;;;1.20;1.10;;;;;;;;;;5033473;28;20206;-86
2023/10/26 11:32:56;;;;;;;1.08;1.08;;;;;;;;;;5032685;28;20710;-84
2023/10/26 11:35:26;;;;;;;0.95;0.95;;;;;;;;;;5033289;28;20234;-86
2023/10/26 11:37:56;;;;;;;1.45;1.35;;;;;;;;;;5033457;28;20195;-85
2023/10/26 11:40:31;;;;;;;1.27;1.20;;;;;;;;;;5033764;28;20207;-85
2023/10/26 11:43:02;;;;;;;1.30;1.20;;;;;;;;;;5033332;28;20237;-85
2023/10/26 11:45:31;;;;;;;1.52;1.42;;;;;;;;;;5032851;28;20198;-88
2023/10/26 11:48:00;;;;;;;1.40;1.30;;;;;;;;;;5028265;28;20610;-86
2023/10/26 11:50:30;;;;;;;1.30;1.20;;;;;;;;;;5028931;28;20209;-85
2023/10/26 11:53:00;;;;;;;1.40;1.30;;;;;;;;;;5016759;28;20238;-88
2023/10/26 11:55:29;;;;;;;2.55;1.70;;;;;;;;;;5032453;28;20285;-85
2023/10/26 11:57:58;;;;;;;1.75;1.65;;;;;;;;;;5017270;28;20264;-86
2023/10/26 12:00:28;;;;;;;1.58;1.48;;;;;;;;;;5032224;28;20300;-86
2023/10/26 12:02:56;;;;;;;1.60;1.50;;;;;;;;;;5031113;28;20281;-86
2023/10/26 12:05:24;;;;;;;1.00;1.00;;;;;;;;;;5032088;28;20198;-85
2023/10/26 12:07:52;;;;;;;1.40;1.30;;;;;;;;;;5032472;28;20212;-86
2023/10/26 12:10:22;;;;;;;1.17;1.17;;;;;;;;;;5032526;28;20742;-86
2023/10/26 12:12:50;;;;;;;1.23;1.23;;;;;;;;;;5032231;28;20607;-86
2023/10/26 12:15:18;;;;;;;1.20;1.20;;;;;;;;;;5032526;28;20690;-85
2023/10/26 12:17:47;;;;;;;1.42;1.38;;;;;;;;;;5032065;28;20202;-86
2023/10/26 12:20:15;;;;;;;1.50;1.40;;;;;;;;;;5032241;28;20202;-86
2023/10/26 12:22:43;;;;;;;1.45;1.35;;;;;;;;;;5032258;28;20203;-86
2023/10/26 12:25:11;;;;;;;1.33;1.30;;;;;;;;;;5032376;28;20289;-86
2023/10/26 12:27:39;;;;;;;1.40;1.30;;;;;;;;;;5032093;28;20203;-86
2023/10/26 12:30:08;;;;;;;1.48;1.38;;;;;;;;;;5031555;28;20281;-87
2023/10/26 12:32:35;;;;;;;1.48;1.38;;;;;;;;;;5030837;28;20310;-87
2023/10/26 12:35:05;;;;;;;1.60;1.50;;;;;;;;;;5032328;28;20289;-86
2023/10/26 12:37:33;;;;;;;1.70;1.60;;;;;;;;;;5031971;28;20198;-85
2023/10/26 12:40:00;;;;;;;2.20;1.95;;;;;;;;;;5031213;28;20201;-85
2023/10/26 12:42:28;;;;;;;2.30;2.10;;;;;;;;;;5032099;28;20573;-85
2023/10/26 12:44:55;;;;;;;1.70;1.60;;;;;;;;;;5031757;28;20253;-86
2023/10/26 12:47:22;;;;;;;1.55;1.45;;;;;;;;;;5032748;28;20304;-85
2023/10/26 12:49:50;;;;;;;1.75;1.65;;;;;;;;;;5031568;28;20206;-85
2023/10/26 12:52:19;;;;;;;1.17;1.17;;;;;;;;;;5032049;28;20661;-86
2023/10/26 12:54:46;;;;;;;1.30;1.30;;;;;;;;;;5031868;28;20264;-85
2023/10/26 12:57:14;;;;;;;1.50;1.40;;;;;;;;;;5032545;28;20198;-86
2023/10/26 12:59:41;;;;;;;1.15;1.15;;;;;;;;;;5031849;28;20293;-85
2023/10/26 13:02:09;;;;;;;1.35;1.25;;;;;;;;;;5030900;28;20202;-85
2023/10/26 13:04:36;;;;;;;1.60;1.50;;;;;;;;;;5032384;28;20250;-84
2023/10/26 13:07:04;;;;;;;1.63;1.52;;;;;;;;;;5031710;28;20285;-87
2023/10/26 13:09:33;;;;;;;1.23;1.17;;;;;;;;;;5031210;28;20293;-86
2023/10/26 13:12:00;;;;;;;1.60;1.50;;;;;;;;;;5017611;28;20225;-85
2023/10/26 13:14:28;;;;;;;1.40;1.30;;;;;;;;;;5031650;28;20236;-85
2023/10/26 13:16:55;;;;;;;1.48;1.38;;;;;;;;;;5031278;28;20285;-85
2023/10/26 13:19:23;;;;;;;1.65;1.52;;;;;;;;;;5031557;28;20209;-84
2023/10/26 13:21:50;;;;;;;1.50;1.40;;;;;;;;;;5030453;28;20292;-86
2023/10/26 13:24:17;;;;;;;1.27;1.25;;;;;;;;;;5031093;28;20222;-86
2023/10/26 13:26:46;;;;;;;1.55;1.45;;;;;;;;;;5031275;28;20209;-85
2023/10/26 13:29:14;;;;;;;2.28;1.55;;;;;;;;;;5031815;28;20293;-86
2023/10/26 13:31:41;;;;;;;2.85;1.73;;;;;;;;;;5030038;28;20250;-86
2023/10/26 13:34:09;;;;;;;2.60;2.35;;;;;;;;;;5031390;28;20305;-85
2023/10/26 13:36:36;;;;;;;2.00;1.80;;;;;;;;;;5031169;28;20202;-85
2023/10/26 13:39:04;;;;;;;1.67;1.58;;;;;;;;;;5031186;28;20226;-86
2023/10/26 13:41:32;;;;;;;1.48;1.38;;;;;;;;;;5031083;28;20229;-86
2023/10/26 13:44:01;;;;;;;1.60;1.50;;;;;;;;;;5031293;28;20222;-86
2023/10/26 13:46:28;;;;;;;1.50;1.40;;;;;;;;;;5031372;28;20557;-84
2023/10/26 13:48:56;;;;;;;2.42;2.22;;;;;;;;;;5031277;28;20286;-86
2023/10/26 13:51:23;;;;;;;1.70;1.60;;;;;;;;;;5031325;28;20643;-85
2023/10/26 13:53:51;;;;;;;1.58;1.48;;;;;;;;;;5034661;28;20317;-85
2023/10/26 13:56:18;;;;;;;1.23;1.20;;;;;;;;;;5034556;28;20206;-86
2023/10/26 13:58:46;;;;;;;1.25;1.15;;;;;;;;;;5034475;28;20297;-85
2023/10/26 14:01:15;;;;;;;1.40;1.30;;;;;;;;;;5034390;28;20743;-86
2023/10/26 14:03:42;;;;;;;1.45;1.35;;;;;;;;;;5033139;28;20223;-85
2023/10/26 14:06:11;;;;;;;1.65;1.55;;;;;;;;;;5034919;28;20626;-85
2023/10/26 14:08:39;;;;;;;1.50;1.40;;;;;;;;;;5027067;28;20207;-85
2023/10/26 14:11:06;;;;;;;1.40;1.30;;;;;;;;;;5034276;28;20289;-85
2023/10/26 14:13:34;;;;;;;1.17;1.10;;;;;;;;;;5034068;28;20246;-84
2023/10/26 14:16:02;;;;;;;0.82;0.82;;;;;;;;;;5034374;28;20202;-86
2023/10/26 14:18:31;;;;;;;1.42;1.40;;;;;;;;;;5034378;28;20202;-85
2023/10/26 14:20:58;;;;;;;1.80;1.70;;;;;;;;;;5034099;28;20277;-86
2023/10/26 14:23:26;;;;;;;1.63;1.52;;;;;;;;;;5034027;28;20788;-86
2023/10/26 14:25:53;;;;;;;1.40;1.30;;;;;;;;;;5026990;28;20383;-86
2023/10/26 14:28:21;;;;;;;1.50;1.40;;;;;;;;;;5034272;28;20209;-85
2023/10/26 14:30:48;;;;;;;1.00;1.00;;;;;;;;;;5033355;28;20654;-85
2023/10/26 14:33:16;;;;;;;1.25;1.25;;;;;;;;;;5032257;28;20667;-85
2023/10/26 14:35:44;;;;;;;0.90;0.90;;;;;;;;;;5034099;28;20202;-86
2023/10/26 14:38:12;;;;;;;1.40;1.30;;;;;;;;;;5033911;28;20202;-86
2023/10/26 14:40:40;;;;;;;1.20;1.05;;;;;;;;;;5033651;28;20221;-85
2023/10/26 14:43:07;;;;;;;1.83;1.17;;;;;;;;;;5032845;28;20230;-86
2023/10/26 14:45:35;;;;;;;1.23;1.13;;;;;;;;;;5033921;28;20203;-86
2023/10/26 14:48:03;;;;;;;1.48;1.38;;;;;;;;;;5033982;28;20203;-85
2023/10/26 14:50:30;;;;;;;0.98;0.93;;;;;;;;;;5033806;28;20241;-86
2023/10/26 14:52:59;;;;;;;1.75;1.65;;;;;;;;;;5033956;28;20224;-85
2023/10/26 14:55:27;;;;;;;1.17;1.17;;;;;;;;;;5034223;28;20226;-86